YPIY weather

Pingelly Airport
Western Australia, Australia

Public forecast

Using degrees Celsius for public forecast. Weather courtesy of forecast.io.

METAR (pilot weather report)

Closest report is Perth Jandakot Airport, 66.1 nm (122.3 km) WNW. Retrieved 2019/03/18 17:00 UTC (21 minutes ago):

YPJT 181700Z AUTO 07008KT 9999 // NCD 27/15 Q1009 RF00.0/000.0

TAF (pilot weather forecast)

Closest forecast is Perth Jandakot Airport, 66.1 nm (122.3 km) WNW. Retrieved 2019/03/18 12:00 UTC (5 hours ago):

TAF YPJT 181005Z 1812/1906 20007KT CAVOK FM181600 07007KT CAVOK FM190200 36010KT CAVOK PROB30 INTER 1818/1902 VRB20G35KT 4000 TSRA FEW090CB